Update: 06-Dec-2021 12:00Z
27°C
WEATHER FORECAST DUBAI AIRPORT
 
Monday, December 06, 2021 (12:01 UTC) 12
Dubai International Airport
Last Updated: 06-Dec-2021 (12:00Z)
Wind Dir/Speed: W at 09 kt
Temperature: 26.6°C
Rel. Humidity: 46 %
Pressure: 1016.2 hPa
Visibility: 10000 m
  • METAR OMDB 061200Z 29009KT 180V320 9999 FEW040 27/14 Q1016 NOSIG
DUBAI AIRPORT 5 DAY IMPACT:
HIGH:
°C
LOW:
°C
HIGH:
°C
LOW:
°C
HIGH:
°C
LOW:
°C
HIGH:
°C
LOW:
°C
HIGH:
°C
LOW:
°C

DUBAI AIRPORT WEATHER FORECAST FOR 30 HOUR:
DUBAI TAF:
TAF OMDB 061100Z 0612/0718 30010KT 8000 FEW040
BECMG 0616/0618 19005KT
BECMG 0708/0710 32010KT
BECMG 0715/0717 08005KT=
VALID FROM:
2021-12-06 12:00Z
VALID TILL:
2021-12-07 18:00Z
SURFACE WIND:
NW'LY 10KT

BECOMING S'LY 05KT FROM 1600Z-1800Z TODAY

BECOMING NW'LY 10KT FROM 0800Z-1000Z TUESDAY

BECOMING E'LY 05KT FROM 1500Z-1700Z TUESDAY.
VISIBILITY:
07-10 KM,
10% PROBABILITY OF 4000 M BETWEEN 0130Z-0430Z TUESDAY.
WEATHER:
FINE,
10% PROBABILITY OF HAZE BETWEEN 0130Z-0430Z TUESDAY.
CLOUD:
FEW TO SCATTERED CUMULUS CLOUD BASE 4,000 FT TOPS 7,000 FT AT TIMES TODAY.
TEMPERATURE:
MIN TEMPERATURE 19°C AROUND 0300Z TUESDAY

MAX TEMPERATURE 27°C AROUND 0900Z TUESDAY.
HUMIDITY:
MAX HUMIDITY 80% AROUND 0300Z TUESDAY

MIN HUMIDITY 45% AROUND 0900Z TUESDAY.
WIND SHEAR:
NIL SIGNIFICANT.
TEMPERATURE INVERSION:
NIL SIGNIFICANT.
COMMENTS:
NIL.